createdAt,value
2023-01-19T00:00:12.541Z,990.65
2023-01-19T00:01:12.530Z,990.69
2023-01-19T00:02:12.512Z,990.65
2023-01-19T00:03:12.527Z,990.64
2023-01-19T00:04:12.516Z,990.64
2023-01-19T00:05:12.519Z,990.63
2023-01-19T00:06:12.733Z,990.68
2023-01-19T00:07:12.513Z,990.68
2023-01-19T00:08:12.735Z,990.75
2023-01-19T00:09:12.511Z,990.74
2023-01-19T00:10:12.545Z,990.67
2023-01-19T00:11:12.528Z,990.72
2023-01-19T00:12:12.752Z,990.69
2023-01-19T00:13:12.515Z,990.76
2023-01-19T00:14:12.522Z,990.67
2023-01-19T00:15:12.575Z,990.79
2023-01-19T00:16:12.591Z,990.83
2023-01-19T00:17:12.514Z,990.76
2023-01-19T00:18:13.525Z,990.76
2023-01-19T00:19:12.687Z,990.77
2023-01-19T00:20:12.899Z,990.74
2023-01-19T00:21:12.512Z,990.74
2023-01-19T00:22:12.524Z,990.76
2023-01-19T00:23:12.513Z,990.72
2023-01-19T00:24:12.521Z,990.7
2023-01-19T00:25:12.517Z,990.69
2023-01-19T00:26:12.511Z,990.71
2023-01-19T00:27:12.502Z,990.73
2023-01-19T00:28:12.520Z,990.71
2023-01-19T00:29:12.506Z,990.77
2023-01-19T00:30:12.520Z,990.71
2023-01-19T00:31:12.590Z,990.67
2023-01-19T00:32:12.552Z,990.73
2023-01-19T00:33:12.679Z,990.73
2023-01-19T00:34:12.617Z,990.75
2023-01-19T00:35:12.568Z,990.8
2023-01-19T00:36:12.524Z,990.77
2023-01-19T00:37:12.656Z,990.74
2023-01-19T00:38:12.530Z,990.73
2023-01-19T00:39:12.515Z,990.7
2023-01-19T00:40:12.561Z,990.76
2023-01-19T00:41:12.534Z,990.69
2023-01-19T00:42:12.520Z,990.72
2023-01-19T00:43:12.504Z,990.7
2023-01-19T00:44:12.536Z,990.65
2023-01-19T00:45:12.557Z,990.79
2023-01-19T00:46:12.573Z,990.7
2023-01-19T00:47:12.547Z,990.69
2023-01-19T00:48:12.515Z,990.73
2023-01-19T00:49:12.526Z,990.69
2023-01-19T00:50:12.547Z,990.64
2023-01-19T00:51:12.557Z,990.64
2023-01-19T00:52:12.512Z,990.66
2023-01-19T00:53:12.509Z,990.67
2023-01-19T00:54:12.514Z,990.63
2023-01-19T00:55:12.538Z,990.62
2023-01-19T00:56:12.507Z,990.64
2023-01-19T00:57:12.510Z,990.64
2023-01-19T00:58:12.515Z,990.7
2023-01-19T00:59:12.520Z,990.67
2023-01-19T01:00:12.555Z,990.68
2023-01-19T01:01:12.629Z,990.67
2023-01-19T01:02:12.607Z,990.69
2023-01-19T01:03:12.676Z,990.71
2023-01-19T01:04:12.531Z,990.74
2023-01-19T01:05:12.541Z,990.67
2023-01-19T01:06:12.546Z,990.69
2023-01-19T01:07:12.513Z,990.72
2023-01-19T01:08:12.532Z,990.74
2023-01-19T01:09:12.684Z,990.72
2023-01-19T01:10:12.542Z,990.76
2023-01-19T01:11:12.513Z,990.72
2023-01-19T01:12:12.536Z,990.79
2023-01-19T01:13:22.533Z,990.74
2023-01-19T01:14:12.559Z,990.83
2023-01-19T01:15:12.607Z,990.77
2023-01-19T01:16:12.575Z,990.85
2023-01-19T01:17:12.515Z,990.8
2023-01-19T01:18:12.518Z,990.84
2023-01-19T01:19:12.557Z,990.81
2023-01-19T01:20:12.546Z,990.87
2023-01-19T01:21:12.516Z,990.83
2023-01-19T01:22:12.515Z,990.85
2023-01-19T01:23:12.512Z,990.82
2023-01-19T01:24:12.518Z,990.85
2023-01-19T01:25:12.520Z,990.82
2023-01-19T01:26:12.698Z,990.85
2023-01-19T01:27:12.504Z,990.85
2023-01-19T01:28:12.731Z,990.83
2023-01-19T01:29:12.521Z,990.89
2023-01-19T01:30:12.781Z,990.84
2023-01-19T01:31:12.568Z,990.86
2023-01-19T01:32:12.510Z,990.85
2023-01-19T01:33:12.620Z,990.87
2023-01-19T01:34:12.879Z,990.84
2023-01-19T01:35:12.652Z,990.74
2023-01-19T01:36:12.552Z,990.72
2023-01-19T01:37:12.746Z,990.74
2023-01-19T01:38:12.505Z,990.73
2023-01-19T01:39:12.765Z,990.7
2023-01-19T01:40:12.535Z,990.71
2023-01-19T01:41:12.514Z,990.77
2023-01-19T01:42:12.525Z,990.82
2023-01-19T01:43:12.515Z,990.77
2023-01-19T01:44:12.523Z,990.8
2023-01-19T01:45:12.537Z,990.79
2023-01-19T01:46:12.548Z,990.78
2023-01-19T01:47:12.521Z,990.75
2023-01-19T01:48:12.525Z,990.75
2023-01-19T01:49:12.535Z,990.76
2023-01-19T01:50:12.562Z,990.75
2023-01-19T01:51:12.506Z,990.73
2023-01-19T01:52:12.511Z,990.75
2023-01-19T01:53:12.785Z,990.7
2023-01-19T01:54:12.517Z,990.69
2023-01-19T01:55:12.518Z,990.74
2023-01-19T01:56:12.524Z,990.7
2023-01-19T01:57:12.541Z,990.7
2023-01-19T01:58:12.512Z,990.69
2023-01-19T01:59:12.519Z,990.73
2023-01-19T02:00:12.559Z,990.78
2023-01-19T02:01:12.575Z,990.78
2023-01-19T02:02:13.517Z,990.83
2023-01-19T02:03:12.609Z,990.81
2023-01-19T02:04:12.606Z,990.82
2023-01-19T02:05:12.533Z,990.86
2023-01-19T02:06:12.521Z,990.87
2023-01-19T02:07:12.512Z,990.87
2023-01-19T02:08:12.522Z,990.85
2023-01-19T02:09:12.506Z,990.88
2023-01-19T02:10:12.545Z,990.93
2023-01-19T02:11:12.523Z,990.99
2023-01-19T02:12:12.515Z,990.93
2023-01-19T02:13:12.524Z,990.95
2023-01-19T02:14:12.519Z,990.92
2023-01-19T02:15:12.522Z,990.91
2023-01-19T02:16:12.595Z,990.94
2023-01-19T02:17:12.517Z,990.94
2023-01-19T02:18:12.513Z,991
2023-01-19T02:19:12.628Z,991.01
2023-01-19T02:20:12.526Z,990.95
2023-01-19T02:21:12.510Z,990.93
2023-01-19T02:22:12.504Z,990.98
2023-01-19T02:23:12.523Z,990.97
2023-01-19T02:24:12.514Z,990.87
2023-01-19T02:25:12.529Z,990.91
2023-01-19T02:26:12.519Z,990.9
2023-01-19T02:27:12.506Z,990.9
2023-01-19T02:28:12.509Z,990.83
2023-01-19T02:29:12.515Z,990.86
2023-01-19T02:30:12.608Z,990.84
2023-01-19T02:31:12.515Z,990.83
2023-01-19T02:32:12.507Z,990.79
2023-01-19T02:33:12.531Z,990.86
2023-01-19T02:34:12.522Z,990.89
2023-01-19T02:35:12.535Z,990.9
2023-01-19T02:36:12.512Z,990.86
2023-01-19T02:37:12.598Z,990.87
2023-01-19T02:38:12.513Z,990.86
2023-01-19T02:39:12.876Z,990.91
2023-01-19T02:40:12.548Z,990.92
2023-01-19T02:41:12.705Z,990.85
2023-01-19T02:42:12.907Z,990.84
2023-01-19T02:43:12.691Z,990.79
2023-01-19T02:44:12.522Z,990.8
2023-01-19T02:45:12.807Z,990.76
2023-01-19T02:46:12.555Z,990.76
2023-01-19T02:47:12.775Z,990.73
2023-01-19T02:48:12.618Z,990.85
2023-01-19T02:49:12.877Z,990.77
2023-01-19T02:50:12.618Z,990.83
2023-01-19T02:51:12.518Z,990.81
2023-01-19T02:52:12.766Z,990.79
2023-01-19T02:53:12.980Z,990.76
2023-01-19T02:54:13.230Z,990.76
2023-01-19T02:55:12.515Z,990.78
2023-01-19T02:56:12.556Z,990.79
2023-01-19T02:57:12.974Z,990.8
2023-01-19T02:58:13.855Z,990.69
2023-01-19T02:59:11.920Z,990.68
2023-01-19T03:00:12.184Z,990.68
2023-01-19T03:01:12.652Z,990.71
2023-01-19T03:02:12.910Z,990.69
2023-01-19T03:03:12.024Z,990.61
2023-01-19T03:04:12.308Z,990.64
2023-01-19T03:05:12.597Z,990.69
2023-01-19T03:06:12.861Z,990.64
2023-01-19T03:07:12.203Z,990.68
2023-01-19T03:08:12.553Z,990.68
2023-01-19T03:09:12.752Z,990.65
2023-01-19T03:10:12.564Z,990.6
2023-01-19T03:11:12.780Z,990.62
2023-01-19T03:12:13.135Z,990.58
2023-01-19T03:13:12.865Z,990.61
2023-01-19T03:14:13.491Z,990.64
2023-01-19T03:15:12.515Z,990.59
2023-01-19T03:16:12.676Z,990.65
2023-01-19T03:17:12.848Z,990.59
2023-01-19T03:18:12.683Z,990.66
2023-01-19T03:19:12.506Z,990.68
2023-01-19T03:20:12.685Z,990.72
2023-01-19T03:21:12.928Z,990.68
2023-01-19T03:22:12.506Z,990.73
2023-01-19T03:23:12.513Z,990.76
2023-01-19T03:24:12.692Z,990.76
2023-01-19T03:25:12.523Z,990.75
2023-01-19T03:26:12.557Z,990.74
2023-01-19T03:27:12.518Z,990.75
2023-01-19T03:28:12.624Z,990.76
2023-01-19T03:29:12.513Z,990.74
2023-01-19T03:30:12.537Z,990.65
2023-01-19T03:31:12.606Z,990.66
2023-01-19T03:32:12.523Z,990.71
2023-01-19T03:33:12.510Z,990.69
2023-01-19T03:34:12.510Z,990.64
2023-01-19T03:35:12.507Z,990.69
2023-01-19T03:36:12.545Z,990.72
2023-01-19T03:37:12.522Z,990.68
2023-01-19T03:38:12.513Z,990.71
2023-01-19T03:39:12.512Z,990.71
2023-01-19T03:40:12.521Z,990.68
2023-01-19T03:41:12.512Z,990.64
2023-01-19T03:42:12.769Z,990.65
2023-01-19T03:43:12.623Z,990.62
2023-01-19T03:44:12.525Z,990.61
2023-01-19T03:45:12.527Z,990.6
2023-01-19T03:46:12.942Z,990.61
2023-01-19T03:47:12.528Z,990.55
2023-01-19T03:48:12.516Z,990.59
2023-01-19T03:49:12.637Z,990.65
2023-01-19T03:50:12.532Z,990.54
2023-01-19T03:51:12.510Z,990.51
2023-01-19T03:52:12.514Z,990.5
2023-01-19T03:53:12.754Z,990.51
2023-01-19T03:54:12.525Z,990.51
2023-01-19T03:55:12.546Z,990.51
2023-01-19T03:56:12.595Z,990.46
2023-01-19T03:57:12.605Z,990.48
2023-01-19T03:58:12.511Z,990.44
2023-01-19T03:59:12.516Z,990.51
2023-01-19T04:00:12.533Z,990.48
2023-01-19T04:01:12.639Z,990.48
2023-01-19T04:02:12.600Z,990.51
2023-01-19T04:03:12.549Z,990.43
2023-01-19T04:04:12.518Z,990.46
2023-01-19T04:05:12.538Z,990.42
2023-01-19T04:06:12.509Z,990.41
2023-01-19T04:07:12.539Z,990.42
2023-01-19T04:08:12.513Z,990.43
2023-01-19T04:09:12.544Z,990.39
2023-01-19T04:10:12.510Z,990.41
2023-01-19T04:11:12.523Z,990.39
2023-01-19T04:12:12.654Z,990.39
2023-01-19T04:13:12.509Z,990.44
2023-01-19T04:14:12.506Z,990.47
2023-01-19T04:15:12.527Z,990.41
2023-01-19T04:16:12.601Z,990.45
2023-01-19T04:17:12.676Z,990.44
2023-01-19T04:18:12.510Z,990.41
2023-01-19T04:19:12.512Z,990.47
2023-01-19T04:20:12.545Z,990.45
2023-01-19T04:21:12.517Z,990.44
2023-01-19T04:22:12.729Z,990.39
2023-01-19T04:23:12.518Z,990.45
2023-01-19T04:24:12.528Z,990.47
2023-01-19T04:25:12.528Z,990.46
2023-01-19T04:26:12.607Z,990.48
2023-01-19T04:27:12.992Z,990.46
2023-01-19T04:28:12.506Z,990.49
2023-01-19T04:29:12.513Z,990.4
2023-01-19T04:30:12.550Z,990.46
2023-01-19T04:31:12.574Z,990.43
2023-01-19T04:32:12.958Z,990.42
2023-01-19T04:33:12.506Z,990.45
2023-01-19T04:34:12.535Z,990.43
2023-01-19T04:35:12.512Z,990.43
2023-01-19T04:36:12.562Z,990.38
2023-01-19T04:37:12.529Z,990.45
2023-01-19T04:38:12.504Z,990.49
2023-01-19T04:39:12.514Z,990.44
2023-01-19T04:40:12.540Z,990.5
2023-01-19T04:41:12.588Z,990.45
2023-01-19T04:42:12.553Z,990.49
2023-01-19T04:43:12.512Z,990.47
2023-01-19T04:44:12.509Z,990.43
2023-01-19T04:45:12.511Z,990.42
2023-01-19T04:46:12.523Z,990.44
2023-01-19T04:47:12.503Z,990.44
2023-01-19T04:48:12.525Z,990.47
2023-01-19T04:49:12.542Z,990.47
2023-01-19T04:50:12.540Z,990.46
2023-01-19T04:51:12.605Z,990.41
2023-01-19T04:52:12.611Z,990.46
2023-01-19T04:53:12.524Z,990.45
2023-01-19T04:54:12.637Z,990.43
2023-01-19T04:55:12.561Z,990.41
2023-01-19T04:56:12.559Z,990.44
2023-01-19T04:57:12.518Z,990.46
2023-01-19T04:58:12.512Z,990.49
2023-01-19T04:59:12.522Z,990.47
2023-01-19T05:00:13.900Z,990.41
2023-01-19T05:01:13.946Z,990.45
2023-01-19T05:02:13.620Z,990.44
2023-01-19T05:03:12.985Z,990.41
2023-01-19T05:04:14.019Z,990.4
2023-01-19T05:05:14.022Z,990.34
2023-01-19T05:06:13.501Z,990.4
2023-01-19T05:07:13.776Z,990.39
2023-01-19T05:08:14.163Z,990.38
2023-01-19T05:09:12.514Z,990.4
2023-01-19T05:10:12.613Z,990.4
2023-01-19T05:11:12.784Z,990.42
2023-01-19T05:12:12.536Z,990.41
2023-01-19T05:13:12.532Z,990.46
2023-01-19T05:14:12.701Z,990.38
2023-01-19T05:15:13.067Z,990.4
2023-01-19T05:16:12.617Z,990.41
2023-01-19T05:17:12.588Z,990.35
2023-01-19T05:18:12.521Z,990.34
2023-01-19T05:19:12.540Z,990.38
2023-01-19T05:20:14.365Z,990.36
2023-01-19T05:21:12.525Z,990.36
2023-01-19T05:22:12.583Z,990.44
2023-01-19T05:23:12.506Z,990.31
2023-01-19T05:24:12.692Z,990.31
2023-01-19T05:25:12.542Z,990.28
2023-01-19T05:26:13.513Z,990.27
2023-01-19T05:27:12.660Z,990.32
2023-01-19T05:28:12.511Z,990.36
2023-01-19T05:29:12.510Z,990.27
2023-01-19T05:30:12.532Z,990.32
2023-01-19T05:31:12.607Z,990.31
2023-01-19T05:32:12.656Z,990.32
2023-01-19T05:33:12.521Z,990.4
2023-01-19T05:34:12.524Z,990.31
2023-01-19T05:35:12.516Z,990.3
2023-01-19T05:36:12.529Z,990.32
2023-01-19T05:37:12.834Z,990.27
2023-01-19T05:38:12.536Z,990.33
2023-01-19T05:39:12.510Z,990.41
2023-01-19T05:40:12.519Z,990.42
2023-01-19T05:41:12.713Z,990.42
2023-01-19T05:42:12.728Z,990.39
2023-01-19T05:43:12.532Z,990.42
2023-01-19T05:44:12.525Z,990.47
2023-01-19T05:45:12.521Z,990.42
2023-01-19T05:46:12.519Z,990.41
2023-01-19T05:47:12.777Z,990.46
2023-01-19T05:48:12.514Z,990.54
2023-01-19T05:49:12.542Z,990.51
2023-01-19T05:50:12.516Z,990.56
2023-01-19T05:51:12.521Z,990.55
2023-01-19T05:52:12.779Z,990.53
2023-01-19T05:53:12.506Z,990.53
2023-01-19T05:54:12.522Z,990.57
2023-01-19T05:55:12.526Z,990.56
2023-01-19T05:56:12.519Z,990.54
2023-01-19T05:57:12.792Z,990.58
2023-01-19T05:58:12.518Z,990.54
2023-01-19T05:59:12.509Z,990.57
2023-01-19T06:00:12.513Z,990.6
2023-01-19T06:01:12.522Z,990.55
2023-01-19T06:02:13.022Z,990.52
2023-01-19T06:03:12.543Z,990.55
2023-01-19T06:04:12.530Z,990.53
2023-01-19T06:05:12.513Z,990.54
2023-01-19T06:06:12.517Z,990.54
2023-01-19T06:07:12.547Z,990.51
2023-01-19T06:08:12.505Z,990.5
2023-01-19T06:09:12.519Z,990.52
2023-01-19T06:10:12.523Z,990.54
2023-01-19T06:11:12.518Z,990.46
2023-01-19T06:12:12.504Z,990.55
2023-01-19T06:13:12.516Z,990.36
2023-01-19T06:14:12.516Z,990.55
2023-01-19T06:15:12.507Z,990.47
2023-01-19T06:16:12.844Z,990.52
2023-01-19T06:17:13.103Z,990.49
2023-01-19T06:18:12.815Z,990.47
2023-01-19T06:19:12.575Z,990.56
2023-01-19T06:20:12.815Z,990.49
2023-01-19T06:21:12.562Z,990.47
2023-01-19T06:22:12.507Z,990.49
2023-01-19T06:23:12.686Z,990.5
2023-01-19T06:24:14.569Z,990.47
2023-01-19T06:25:12.673Z,990.52
2023-01-19T06:26:12.607Z,990.5
2023-01-19T06:27:12.799Z,990.53
2023-01-19T06:28:13.035Z,990.54
2023-01-19T06:29:13.261Z,990.54
2023-01-19T06:30:12.518Z,990.58
2023-01-19T06:31:12.580Z,990.58
2023-01-19T06:32:12.510Z,990.58
2023-01-19T06:33:12.517Z,990.61
2023-01-19T06:34:12.503Z,990.61
2023-01-19T06:35:12.513Z,990.59
2023-01-19T06:36:12.551Z,990.6
2023-01-19T06:37:12.509Z,990.65
2023-01-19T06:38:12.506Z,990.6
2023-01-19T06:39:12.508Z,990.73
2023-01-19T06:40:16.543Z,990.7
2023-01-19T06:41:12.502Z,990.72
2023-01-19T06:42:12.619Z,990.75
2023-01-19T06:43:12.847Z,990.72
2023-01-19T06:44:12.828Z,990.82
2023-01-19T06:45:12.101Z,990.81
2023-01-19T06:46:12.415Z,990.75
2023-01-19T06:47:16.785Z,990.78
2023-01-19T06:48:12.942Z,990.86
2023-01-19T06:49:12.221Z,990.95
2023-01-19T06:50:12.494Z,990.83
2023-01-19T06:51:12.858Z,990.86
2023-01-19T06:52:13.507Z,990.88
2023-01-19T06:53:12.603Z,990.88
2023-01-19T06:54:12.804Z,990.82
2023-01-19T06:55:12.958Z,990.88
2023-01-19T06:56:12.659Z,990.87
2023-01-19T06:57:12.518Z,990.86
2023-01-19T06:58:12.525Z,990.86
2023-01-19T06:59:12.712Z,990.89
2023-01-19T07:00:12.533Z,990.98
2023-01-19T07:01:12.658Z,990.95
2023-01-19T07:02:25.927Z,990.96
2023-01-19T07:03:12.553Z,991.09
2023-01-19T07:04:12.508Z,991.08
2023-01-19T07:05:12.535Z,991.12
2023-01-19T07:06:12.534Z,991.07
2023-01-19T07:07:12.646Z,991.1
2023-01-19T07:08:12.503Z,991.15
2023-01-19T07:09:12.516Z,991.17
2023-01-19T07:10:12.512Z,991.18
2023-01-19T07:11:21.881Z,991.18
2023-01-19T07:12:12.714Z,991.24
2023-01-19T07:13:12.522Z,991.32
2023-01-19T07:14:12.592Z,991.26
2023-01-19T07:15:12.506Z,991.23
2023-01-19T07:16:12.534Z,991.25
2023-01-19T07:17:12.728Z,991.16
2023-01-19T07:18:12.519Z,991.25
2023-01-19T07:19:12.531Z,991.21
2023-01-19T07:20:12.541Z,991.27
2023-01-19T07:21:12.656Z,991.27
2023-01-19T07:22:12.787Z,991.27
2023-01-19T07:23:12.514Z,991.27
2023-01-19T07:24:12.562Z,991.21
2023-01-19T07:25:12.847Z,991.28
2023-01-19T07:26:12.787Z,991.26
2023-01-19T07:27:12.837Z,991.3
2023-01-19T07:28:12.817Z,991.28
2023-01-19T07:29:12.535Z,991.26
2023-01-19T07:30:12.812Z,991.36
2023-01-19T07:31:12.651Z,991.34
2023-01-19T07:32:12.894Z,991.33
2023-01-19T07:33:12.675Z,991.42
2023-01-19T07:34:15.529Z,991.38
2023-01-19T07:35:12.714Z,991.41
2023-01-19T07:36:12.554Z,991.43
2023-01-19T07:37:13.126Z,991.39
2023-01-19T07:38:12.563Z,991.34
2023-01-19T07:39:12.863Z,991.39
2023-01-19T07:40:12.655Z,991.44
2023-01-19T07:41:12.509Z,991.41
2023-01-19T07:42:13.138Z,991.42
2023-01-19T07:43:13.046Z,991.48
2023-01-19T07:44:12.785Z,991.47
2023-01-19T07:45:12.506Z,991.56
2023-01-19T07:46:12.574Z,991.58
2023-01-19T07:47:12.588Z,991.55
2023-01-19T07:48:12.552Z,991.53
2023-01-19T07:49:12.511Z,991.51
2023-01-19T07:50:12.538Z,991.55
2023-01-19T07:51:15.803Z,991.6
2023-01-19T07:52:12.516Z,991.68
2023-01-19T07:53:12.528Z,991.63
2023-01-19T07:54:12.510Z,991.7
2023-01-19T07:55:12.524Z,991.68
2023-01-19T07:56:12.515Z,991.67
2023-01-19T07:57:12.518Z,991.66
2023-01-19T07:58:12.537Z,991.7
2023-01-19T07:59:12.535Z,991.68
2023-01-19T08:00:12.544Z,991.66
2023-01-19T08:01:12.663Z,991.73
2023-01-19T08:02:12.606Z,991.74
2023-01-19T08:03:12.524Z,991.71
2023-01-19T08:04:12.563Z,991.7
2023-01-19T08:05:12.521Z,991.7
2023-01-19T08:06:12.537Z,991.68
2023-01-19T08:07:12.506Z,991.72
2023-01-19T08:08:12.523Z,991.69
2023-01-19T08:09:12.520Z,991.63
2023-01-19T08:10:12.628Z,991.73
2023-01-19T08:11:12.509Z,991.7
2023-01-19T08:12:12.518Z,991.74
2023-01-19T08:13:12.527Z,991.71
2023-01-19T08:14:12.531Z,991.65
2023-01-19T08:15:12.532Z,991.69
2023-01-19T08:16:12.572Z,991.79
2023-01-19T08:17:12.512Z,991.84
2023-01-19T08:18:12.519Z,991.83
2023-01-19T08:19:12.513Z,991.85
2023-01-19T08:20:12.547Z,991.88
2023-01-19T08:21:12.531Z,991.85
2023-01-19T08:22:12.509Z,991.86
2023-01-19T08:23:12.514Z,991.83
2023-01-19T08:24:12.551Z,991.85
2023-01-19T08:25:12.543Z,991.83
2023-01-19T08:26:12.525Z,991.91
2023-01-19T08:27:13.537Z,991.92
2023-01-19T08:28:12.516Z,991.95
2023-01-19T08:29:12.518Z,991.97
2023-01-19T08:30:12.557Z,991.93
2023-01-19T08:31:23.655Z,991.96
2023-01-19T08:32:12.656Z,992.01
2023-01-19T08:33:12.522Z,992.02
2023-01-19T08:34:12.678Z,992.03
2023-01-19T08:35:12.591Z,992.08
2023-01-19T08:36:12.619Z,992.12
2023-01-19T08:37:12.546Z,992.09
2023-01-19T08:38:12.881Z,992.13
2023-01-19T08:39:12.537Z,992.18
2023-01-19T08:40:12.792Z,992.21
2023-01-19T08:41:12.618Z,992.24
2023-01-19T08:42:12.507Z,992.2
2023-01-19T08:43:12.545Z,992.22
2023-01-19T08:44:12.542Z,992.24
2023-01-19T08:45:12.733Z,992.29
2023-01-19T08:46:12.677Z,992.26
2023-01-19T08:47:12.668Z,992.22
2023-01-19T08:48:12.513Z,992.27
2023-01-19T08:49:12.519Z,992.3
2023-01-19T08:50:12.656Z,992.35
2023-01-19T08:51:12.518Z,992.38
2023-01-19T08:52:12.507Z,992.27
2023-01-19T08:53:12.514Z,992.36
2023-01-19T08:54:12.520Z,992.4
2023-01-19T08:55:12.533Z,992.42
2023-01-19T08:56:12.523Z,992.46
2023-01-19T08:57:12.511Z,992.52
2023-01-19T08:58:12.524Z,992.55
2023-01-19T08:59:15.514Z,992.53
2023-01-19T09:00:12.538Z,992.55
2023-01-19T09:01:12.597Z,992.57
2023-01-19T09:02:12.611Z,992.62
2023-01-19T09:03:12.642Z,992.6
2023-01-19T09:04:12.520Z,992.64
2023-01-19T09:05:12.530Z,992.64
2023-01-19T09:06:12.648Z,992.69
2023-01-19T09:07:12.515Z,992.74
2023-01-19T09:08:12.507Z,992.7
2023-01-19T09:09:12.519Z,992.73
2023-01-19T09:10:12.532Z,992.73
2023-01-19T09:11:12.523Z,992.74
2023-01-19T09:12:12.537Z,992.83
2023-01-19T09:13:12.510Z,992.82
2023-01-19T09:14:12.506Z,992.78
2023-01-19T09:15:12.553Z,992.81
2023-01-19T09:16:12.559Z,992.81
2023-01-19T09:17:12.517Z,992.86
2023-01-19T09:18:12.522Z,992.92
2023-01-19T09:19:12.519Z,992.96
2023-01-19T09:20:12.520Z,992.93
2023-01-19T09:21:12.529Z,992.96
2023-01-19T09:22:12.518Z,992.95
2023-01-19T09:23:12.536Z,992.95
2023-01-19T09:24:12.517Z,992.97
2023-01-19T09:25:12.525Z,992.99
2023-01-19T09:26:12.518Z,992.99
2023-01-19T09:27:12.519Z,992.97
2023-01-19T09:28:12.521Z,992.96
2023-01-19T09:29:12.517Z,992.96
2023-01-19T09:30:12.517Z,992.95
2023-01-19T09:31:12.588Z,992.97
2023-01-19T09:32:12.511Z,993
2023-01-19T09:33:12.590Z,993.01
2023-01-19T09:34:12.511Z,993.02
2023-01-19T09:35:12.528Z,993.07
2023-01-19T09:36:12.516Z,993.1
2023-01-19T09:37:12.519Z,993.11
2023-01-19T09:38:12.525Z,993.15
2023-01-19T09:39:12.523Z,993.1
2023-01-19T09:40:12.525Z,993.14
2023-01-19T09:41:12.512Z,993.15
2023-01-19T09:42:12.537Z,993.21
2023-01-19T09:43:12.516Z,993.19
2023-01-19T09:44:12.593Z,993.21
2023-01-19T09:45:15.576Z,993.2
2023-01-19T09:46:12.620Z,993.23
2023-01-19T09:47:12.513Z,993.32
2023-01-19T09:48:12.570Z,993.35
2023-01-19T09:49:12.511Z,993.3
2023-01-19T09:50:12.528Z,993.35
2023-01-19T09:51:12.520Z,993.36
2023-01-19T09:52:12.620Z,993.41
2023-01-19T09:53:12.514Z,993.37
2023-01-19T09:54:12.506Z,993.41
2023-01-19T09:55:12.518Z,993.41
2023-01-19T09:56:13.270Z,993.45
2023-01-19T09:57:12.530Z,993.41
2023-01-19T09:58:12.513Z,993.44
2023-01-19T09:59:12.545Z,993.5
2023-01-19T10:00:12.930Z,993.56
2023-01-19T10:01:12.578Z,993.56
2023-01-19T10:02:12.560Z,993.53
2023-01-19T10:03:12.707Z,993.55
2023-01-19T10:04:12.511Z,993.55
2023-01-19T10:05:12.773Z,993.55
2023-01-19T10:06:12.520Z,993.6
2023-01-19T10:07:12.515Z,993.55
2023-01-19T10:08:12.518Z,993.57
2023-01-19T10:09:12.516Z,993.64
2023-01-19T10:10:12.524Z,993.6
2023-01-19T10:11:12.507Z,993.64
2023-01-19T10:12:12.510Z,993.69
2023-01-19T10:13:12.527Z,993.69
2023-01-19T10:14:13.653Z,993.65
2023-01-19T10:15:12.516Z,993.7
2023-01-19T10:16:12.557Z,993.63
2023-01-19T10:17:12.758Z,993.69
2023-01-19T10:18:12.938Z,993.7
2023-01-19T10:19:12.097Z,993.72
2023-01-19T10:20:12.366Z,993.72
2023-01-19T10:21:12.640Z,993.74
2023-01-19T10:22:12.912Z,993.74
2023-01-19T10:23:12.225Z,993.71
2023-01-19T10:24:12.475Z,993.72
2023-01-19T10:25:12.892Z,993.65
2023-01-19T10:26:12.200Z,993.71
2023-01-19T10:27:12.430Z,993.76
2023-01-19T10:28:12.753Z,993.65
2023-01-19T10:29:14.890Z,993.65
2023-01-19T10:30:12.728Z,993.67
2023-01-19T10:31:12.622Z,993.64
2023-01-19T10:32:12.869Z,993.75
2023-01-19T10:33:12.581Z,993.79
2023-01-19T10:34:12.507Z,993.73
2023-01-19T10:35:12.546Z,993.77
2023-01-19T10:36:12.508Z,993.82
2023-01-19T10:37:12.592Z,993.7
2023-01-19T10:38:12.529Z,993.74
2023-01-19T10:39:12.558Z,993.71
2023-01-19T10:40:12.514Z,993.73
2023-01-19T10:41:12.610Z,993.69
2023-01-19T10:42:12.549Z,993.72
2023-01-19T10:43:12.533Z,993.73
2023-01-19T10:44:12.532Z,993.69
2023-01-19T10:45:12.532Z,993.7
2023-01-19T10:46:12.541Z,993.68
2023-01-19T10:47:12.526Z,993.66
2023-01-19T10:48:12.537Z,993.75
2023-01-19T10:49:12.546Z,993.75
2023-01-19T10:50:12.542Z,993.79
2023-01-19T10:51:12.522Z,993.77
2023-01-19T10:52:12.564Z,993.78
2023-01-19T10:53:12.578Z,993.77
2023-01-19T10:54:12.525Z,993.8
2023-01-19T10:55:12.525Z,993.82
2023-01-19T10:56:12.561Z,993.8
2023-01-19T10:57:12.658Z,993.82
2023-01-19T10:58:12.976Z,993.82
2023-01-19T10:59:12.648Z,993.82
2023-01-19T11:00:12.569Z,993.85
2023-01-19T11:01:13.009Z,993.83
2023-01-19T11:02:12.670Z,993.86
2023-01-19T11:03:12.686Z,993.89
2023-01-19T11:04:12.938Z,993.91
2023-01-19T11:05:12.873Z,993.92
2023-01-19T11:06:13.146Z,993.91
2023-01-19T11:07:12.863Z,993.93
2023-01-19T11:08:12.647Z,993.94
2023-01-19T11:09:12.744Z,993.92
2023-01-19T11:10:13.026Z,993.95
2023-01-19T11:11:12.895Z,993.94
2023-01-19T11:12:12.747Z,993.88
2023-01-19T11:13:13.035Z,993.91
2023-01-19T11:14:12.675Z,993.92
2023-01-19T11:15:12.865Z,993.88
2023-01-19T11:16:16.008Z,993.89
2023-01-19T11:17:12.779Z,993.94
2023-01-19T11:18:12.666Z,994.01
2023-01-19T11:19:12.533Z,993.95
2023-01-19T11:20:12.513Z,993.95
2023-01-19T11:21:12.513Z,994.01
2023-01-19T11:22:12.515Z,994.02
2023-01-19T11:23:12.542Z,994.05
2023-01-19T11:24:12.518Z,994.09
2023-01-19T11:25:12.513Z,994.08
2023-01-19T11:26:12.516Z,994.13
2023-01-19T11:27:12.506Z,994.09
2023-01-19T11:28:12.544Z,994.1
2023-01-19T11:29:12.521Z,994.04
2023-01-19T11:30:12.528Z,994.1
2023-01-19T11:31:12.564Z,994.12
2023-01-19T11:32:12.517Z,994.12
2023-01-19T11:33:12.548Z,994.13
2023-01-19T11:34:12.519Z,994.18
2023-01-19T11:35:12.535Z,994.18
2023-01-19T11:36:12.522Z,994.19
2023-01-19T11:37:12.526Z,994.16
2023-01-19T11:38:12.554Z,994.21
2023-01-19T11:39:12.526Z,994.2
2023-01-19T11:40:15.545Z,994.25
2023-01-19T11:41:12.536Z,994.21
2023-01-19T11:42:12.624Z,994.17
2023-01-19T11:43:12.541Z,994.21
2023-01-19T11:44:12.513Z,994.24
2023-01-19T11:45:12.544Z,994.1
2023-01-19T11:46:12.538Z,994.2
2023-01-19T11:47:12.511Z,994.16
2023-01-19T11:48:12.543Z,994.21
2023-01-19T11:49:12.514Z,994.26
2023-01-19T11:50:12.525Z,994.22
2023-01-19T11:51:12.525Z,994.23
2023-01-19T11:52:12.518Z,994.32
2023-01-19T11:53:12.520Z,994.26
2023-01-19T11:54:12.551Z,994.29
2023-01-19T11:55:12.530Z,994.29
2023-01-19T11:56:12.524Z,994.25
2023-01-19T11:57:12.517Z,994.27
2023-01-19T11:58:12.519Z,994.24
2023-01-19T11:59:12.520Z,994.26
2023-01-19T12:00:12.504Z,994.27
2023-01-19T12:01:12.537Z,994.26
2023-01-19T12:02:12.553Z,994.31
2023-01-19T12:03:12.911Z,994.31
2023-01-19T12:04:12.918Z,994.32
2023-01-19T12:05:12.735Z,994.33
2023-01-19T12:06:12.517Z,994.36
2023-01-19T12:07:12.587Z,994.33
2023-01-19T12:08:13.161Z,994.32
2023-01-19T12:09:12.525Z,994.32
2023-01-19T12:10:12.779Z,994.36
2023-01-19T12:11:12.529Z,994.3
2023-01-19T12:12:12.806Z,994.3
2023-01-19T12:13:12.535Z,994.31
2023-01-19T12:14:12.763Z,994.29
2023-01-19T12:15:12.637Z,994.33
2023-01-19T12:16:12.955Z,994.3
2023-01-19T12:17:12.600Z,994.31
2023-01-19T12:18:12.560Z,994.28
2023-01-19T12:19:12.759Z,994.38
2023-01-19T12:20:12.513Z,994.34
2023-01-19T12:21:12.719Z,994.32
2023-01-19T12:22:12.529Z,994.33
2023-01-19T12:23:12.538Z,994.33
2023-01-19T12:24:12.542Z,994.33
2023-01-19T12:25:12.515Z,994.28
2023-01-19T12:26:12.566Z,994.31
2023-01-19T12:27:12.529Z,994.28
2023-01-19T12:28:12.534Z,994.3
2023-01-19T12:29:12.610Z,994.29
2023-01-19T12:30:12.506Z,994.28